sensor_id;sensor_type;location;lat;lon;timestamp;P1;durP1;ratioP1;P2;durP2;ratioP2
60306;SDS011;46155;52.364;6.580;2022-11-22T04:01:24;39.70;;;36.37;;
60306;SDS011;46155;52.364;6.580;2022-11-22T04:03:49;38.60;;;35.73;;
60306;SDS011;46155;52.364;6.580;2022-11-22T04:06:16;40.50;;;36.67;;
60306;SDS011;46155;52.364;6.580;2022-11-22T04:08:41;39.87;;;36.47;;
60306;SDS011;46155;52.364;6.580;2022-11-22T04:11:06;42.53;;;39.33;;
60306;SDS011;46155;52.364;6.580;2022-11-22T04:13:32;40.30;;;36.40;;
60306;SDS011;46155;52.364;6.580;2022-11-22T04:16:15;40.80;;;36.83;;
60306;SDS011;46155;52.364;6.580;2022-11-22T04:18:41;45.77;;;41.83;;
60306;SDS011;46155;52.364;6.580;2022-11-22T04:21:06;45.10;;;41.90;;
60306;SDS011;46155;52.364;6.580;2022-11-22T04:23:50;42.67;;;39.77;;
60306;SDS011;46155;52.364;6.580;2022-11-22T04:26:36;44.23;;;38.77;;
60306;SDS011;46155;52.364;6.580;2022-11-22T04:29:01;45.73;;;40.60;;
60306;SDS011;46155;52.364;6.580;2022-11-22T04:31:27;41.63;;;38.60;;
60306;SDS011;46155;52.364;6.580;2022-11-22T04:34:11;43.23;;;38.37;;
60306;SDS011;46155;52.364;6.580;2022-11-22T04:36:36;40.87;;;37.00;;
60306;SDS011;46155;52.364;6.580;2022-11-22T04:39:01;43.43;;;39.23;;
60306;SDS011;46155;52.364;6.580;2022-11-22T04:41:27;44.47;;;40.50;;
60306;SDS011;46155;52.364;6.580;2022-11-22T04:43:52;43.73;;;39.70;;
60306;SDS011;46155;52.364;6.580;2022-11-22T04:46:36;44.23;;;41.03;;
60306;SDS011;46155;52.364;6.580;2022-11-22T04:49:02;44.60;;;39.63;;
60306;SDS011;46155;52.364;6.580;2022-11-22T04:51:27;44.23;;;40.30;;
60306;SDS011;46155;52.364;6.580;2022-11-22T04:54:11;43.87;;;39.70;;
60306;SDS011;46155;52.364;6.580;2022-11-22T04:56:36;53.67;;;39.63;;
60306;SDS011;46155;52.364;6.580;2022-11-22T04:59:01;46.90;;;42.93;;
60306;SDS011;46155;52.364;6.580;2022-11-22T05:01:27;42.13;;;38.53;;
60306;SDS011;46155;52.364;6.580;2022-11-22T05:03:52;43.60;;;39.90;;
60306;SDS011;46155;52.364;6.580;2022-11-22T05:06:17;43.43;;;39.90;;
60306;SDS011;46155;52.364;6.580;2022-11-22T05:08:42;41.80;;;38.77;;
60306;SDS011;46155;52.364;6.580;2022-11-22T05:11:08;41.63;;;37.87;;
60306;SDS011;46155;52.364;6.580;2022-11-22T05:13:34;38.90;;;35.23;;
60306;SDS011;46155;52.364;6.580;2022-11-22T05:16:01;36.23;;;33.80;;
60306;SDS011;46155;52.364;6.580;2022-11-22T05:18:28;44.50;;;40.40;;
60306;SDS011;46155;52.364;6.580;2022-11-22T05:20:54;45.43;;;35.27;;
60306;SDS011;46155;52.364;6.580;2022-11-22T05:23:20;36.87;;;33.87;;
60306;SDS011;46155;52.364;6.580;2022-11-22T05:26:05;39.70;;;35.10;;
60306;SDS011;46155;52.364;6.580;2022-11-22T05:28:32;39.20;;;35.53;;
60306;SDS011;46155;52.364;6.580;2022-11-22T05:31:04;38.23;;;34.57;;
60306;SDS011;46155;52.364;6.580;2022-11-22T05:33:31;36.43;;;32.53;;
60306;SDS011;46155;52.364;6.580;2022-11-22T05:35:56;42.33;;;38.57;;
60306;SDS011;46155;52.364;6.580;2022-11-22T05:38:24;40.40;;;37.43;;
60306;SDS011;46155;52.364;6.580;2022-11-22T05:40:49;40.93;;;36.40;;
60306;SDS011;46155;52.364;6.580;2022-11-22T05:43:14;37.37;;;34.47;;
60306;SDS011;46155;52.364;6.580;2022-11-22T05:45:40;37.73;;;35.17;;
60306;SDS011;46155;52.364;6.580;2022-11-22T05:48:05;39.93;;;36.73;;
60306;SDS011;46155;52.364;6.580;2022-11-22T05:50:30;38.70;;;34.03;;
60306;SDS011;46155;52.364;6.580;2022-11-22T05:52:59;40.27;;;35.67;;
60306;SDS011;46155;52.364;6.580;2022-11-22T05:55:24;42.23;;;38.53;;
60306;SDS011;46155;52.364;6.580;2022-11-22T05:57:49;40.37;;;36.67;;
60306;SDS011;46155;52.364;6.580;2022-11-22T06:00:15;35.97;;;33.57;;
60306;SDS011;46155;52.364;6.580;2022-11-22T06:02:41;38.87;;;34.57;;
60306;SDS011;46155;52.364;6.580;2022-11-22T06:05:06;32.23;;;29.77;;
60306;SDS011;46155;52.364;6.580;2022-11-22T06:07:32;35.13;;;32.97;;
60306;SDS011;46155;52.364;6.580;2022-11-22T06:09:57;35.50;;;32.43;;
60306;SDS011;46155;52.364;6.580;2022-11-22T06:12:22;34.43;;;31.57;;
60306;SDS011;46155;52.364;6.580;2022-11-22T06:14:47;34.73;;;30.17;;
60306;SDS011;46155;52.364;6.580;2022-11-22T06:17:13;37.70;;;33.43;;
60306;SDS011;46155;52.364;6.580;2022-11-22T06:19:38;36.43;;;31.47;;
60306;SDS011;46155;52.364;6.580;2022-11-22T06:22:03;32.93;;;30.50;;
60306;SDS011;46155;52.364;6.580;2022-11-22T06:24:30;31.43;;;28.83;;
60306;SDS011;46155;52.364;6.580;2022-11-22T06:26:55;27.40;;;24.50;;
60306;SDS011;46155;52.364;6.580;2022-11-22T06:29:20;31.90;;;29.27;;
60306;SDS011;46155;52.364;6.580;2022-11-22T06:31:45;28.10;;;25.47;;
60306;SDS011;46155;52.364;6.580;2022-11-22T06:34:11;31.90;;;28.50;;
60306;SDS011;46155;52.364;6.580;2022-11-22T06:36:37;31.07;;;28.97;;
60306;SDS011;46155;52.364;6.580;2022-11-22T06:39:03;31.27;;;28.13;;
60306;SDS011;46155;52.364;6.580;2022-11-22T06:41:32;29.30;;;27.00;;
60306;SDS011;46155;52.364;6.580;2022-11-22T06:44:02;30.80;;;27.70;;
60306;SDS011;46155;52.364;6.580;2022-11-22T06:46:31;30.87;;;28.23;;
60306;SDS011;46155;52.364;6.580;2022-11-22T06:48:57;37.40;;;34.17;;
60306;SDS011;46155;52.364;6.580;2022-11-22T06:51:23;30.93;;;28.83;;
60306;SDS011;46155;52.364;6.580;2022-11-22T06:53:52;31.53;;;28.80;;
60306;SDS011;46155;52.364;6.580;2022-11-22T06:58:47;35.13;;;30.07;;
60306;SDS011;46155;52.364;6.580;2022-11-22T07:01:15;33.73;;;30.80;;
60306;SDS011;46155;52.364;6.580;2022-11-22T07:03:42;32.43;;;29.10;;
60306;SDS011;46155;52.364;6.580;2022-11-22T07:06:08;35.60;;;27.27;;
60306;SDS011;46155;52.364;6.580;2022-11-22T07:08:35;31.83;;;28.17;;
60306;SDS011;46155;52.364;6.580;2022-11-22T07:11:03;27.00;;;24.43;;
60306;SDS011;46155;52.364;6.580;2022-11-22T07:13:31;28.03;;;25.37;;
60306;SDS011;46155;52.364;6.580;2022-11-22T07:15:58;30.97;;;24.97;;
60306;SDS011;46155;52.364;6.580;2022-11-22T07:18:25;35.30;;;24.13;;
60306;SDS011;46155;52.364;6.580;2022-11-22T07:20:51;24.50;;;22.37;;
60306;SDS011;46155;52.364;6.580;2022-11-22T07:23:17;23.50;;;21.17;;
60306;SDS011;46155;52.364;6.580;2022-11-22T07:25:43;27.63;;;21.90;;
60306;SDS011;46155;52.364;6.580;2022-11-22T07:28:09;24.23;;;20.13;;
60306;SDS011;46155;52.364;6.580;2022-11-22T07:30:34;27.23;;;20.87;;
60306;SDS011;46155;52.364;6.580;2022-11-22T07:33:00;40.60;;;20.33;;
60306;SDS011;46155;52.364;6.580;2022-11-22T07:35:25;27.40;;;20.77;;
60306;SDS011;46155;52.364;6.580;2022-11-22T07:37:50;23.27;;;20.50;;
60306;SDS011;46155;52.364;6.580;2022-11-22T07:40:16;25.50;;;23.07;;
60306;SDS011;46155;52.364;6.580;2022-11-22T07:42:41;29.10;;;22.47;;
60306;SDS011;46155;52.364;6.580;2022-11-22T07:45:07;32.07;;;22.60;;
60306;SDS011;46155;52.364;6.580;2022-11-22T07:47:32;26.23;;;24.10;;
60306;SDS011;46155;52.364;6.580;2022-11-22T07:49:57;32.43;;;21.63;;
60306;SDS011;46155;52.364;6.580;2022-11-22T07:52:23;23.93;;;21.43;;
60306;SDS011;46155;52.364;6.580;2022-11-22T07:54:48;23.17;;;20.90;;
60306;SDS011;46155;52.364;6.580;2022-11-22T07:57:13;22.23;;;20.43;;
60306;SDS011;46155;52.364;6.580;2022-11-22T07:59:38;24.60;;;22.10;;
60306;SDS011;46155;52.364;6.580;2022-11-22T08:02:04;21.70;;;19.60;;
60306;SDS011;46155;52.364;6.580;2022-11-22T08:04:29;27.70;;;25.17;;
60306;SDS011;46155;52.364;6.580;2022-11-22T08:06:54;28.30;;;26.00;;
60306;SDS011;46155;52.364;6.580;2022-11-22T08:09:19;26.00;;;23.57;;
60306;SDS011;46155;52.364;6.580;2022-11-22T08:11:45;24.07;;;21.20;;
60306;SDS011;46155;52.364;6.580;2022-11-22T08:14:10;28.63;;;23.43;;
60306;SDS011;46155;52.364;6.580;2022-11-22T08:16:36;32.40;;;23.73;;
60306;SDS011;46155;52.364;6.580;2022-11-22T08:19:01;24.93;;;22.70;;
60306;SDS011;46155;52.364;6.580;2022-11-22T08:21:26;24.97;;;22.37;;
60306;SDS011;46155;52.364;6.580;2022-11-22T08:23:55;23.87;;;18.83;;
60306;SDS011;46155;52.364;6.580;2022-11-22T08:26:22;30.20;;;20.60;;
60306;SDS011;46155;52.364;6.580;2022-11-22T08:28:47;26.30;;;21.17;;
60306;SDS011;46155;52.364;6.580;2022-11-22T08:31:14;38.77;;;20.43;;
60306;SDS011;46155;52.364;6.580;2022-11-22T08:33:41;21.00;;;19.50;;
60306;SDS011;46155;52.364;6.580;2022-11-22T08:36:07;27.43;;;20.83;;
60306;SDS011;46155;52.364;6.580;2022-11-22T08:38:32;28.37;;;19.83;;
60306;SDS011;46155;52.364;6.580;2022-11-22T08:40:58;23.03;;;19.03;;
60306;SDS011;46155;52.364;6.580;2022-11-22T08:43:23;24.10;;;19.97;;
60306;SDS011;46155;52.364;6.580;2022-11-22T08:45:52;22.97;;;17.77;;
60306;SDS011;46155;52.364;6.580;2022-11-22T08:48:19;30.10;;;16.97;;
60306;SDS011;46155;52.364;6.580;2022-11-22T08:50:49;22.53;;;16.63;;
60306;SDS011;46155;52.364;6.580;2022-11-22T08:53:15;17.27;;;15.77;;
60306;SDS011;46155;52.364;6.580;2022-11-22T08:55:40;18.93;;;15.97;;
60306;SDS011;46155;52.364;6.580;2022-11-22T08:58:06;19.10;;;17.70;;
60306;SDS011;46155;52.364;6.580;2022-11-22T09:00:31;16.37;;;14.77;;
60306;SDS011;46155;52.364;6.580;2022-11-22T09:02:57;16.77;;;13.20;;
60306;SDS011;46155;52.364;6.580;2022-11-22T09:05:22;28.00;;;14.20;;
60306;SDS011;46155;52.364;6.580;2022-11-22T09:07:47;21.47;;;15.97;;
60306;SDS011;46155;52.364;6.580;2022-11-22T09:10:12;17.67;;;13.50;;
60306;SDS011;46155;52.364;6.580;2022-11-22T09:12:38;16.20;;;12.10;;
60306;SDS011;46155;52.364;6.580;2022-11-22T09:15:07;22.23;;;13.47;;
60306;SDS011;46155;52.364;6.580;2022-11-22T09:17:33;14.77;;;13.40;;
60306;SDS011;46155;52.364;6.580;2022-11-22T09:19:58;19.23;;;13.33;;
60306;SDS011;46155;52.364;6.580;2022-11-22T09:22:23;25.07;;;14.00;;
60306;SDS011;46155;52.364;6.580;2022-11-22T09:24:48;17.37;;;14.90;;
60306;SDS011;46155;52.364;6.580;2022-11-22T09:27:14;23.33;;;14.23;;
60306;SDS011;46155;52.364;6.580;2022-11-22T09:29:39;16.60;;;14.60;;
60306;SDS011;46155;52.364;6.580;2022-11-22T09:32:07;16.37;;;14.63;;
60306;SDS011;46155;52.364;6.580;2022-11-22T09:34:33;18.27;;;14.33;;
60306;SDS011;46155;52.364;6.580;2022-11-22T09:36:59;20.73;;;12.90;;
60306;SDS011;46155;52.364;6.580;2022-11-22T09:39:24;14.23;;;12.90;;
60306;SDS011;46155;52.364;6.580;2022-11-22T09:42:02;15.40;;;12.60;;
60306;SDS011;46155;52.364;6.580;2022-11-22T09:44:44;16.57;;;12.93;;
60306;SDS011;46155;52.364;6.580;2022-11-22T09:47:37;20.57;;;12.77;;
60306;SDS011;46155;52.364;6.580;2022-11-22T09:52:59;15.37;;;12.67;;
60306;SDS011;46155;52.364;6.580;2022-11-22T09:55:33;28.47;;;12.60;;
60306;SDS011;46155;52.364;6.580;2022-11-22T10:00:35;11.80;;;10.90;;
60306;SDS011;46155;52.364;6.580;2022-11-22T10:03:05;11.60;;;10.37;;
60306;SDS011;46155;52.364;6.580;2022-11-22T10:05:45;12.10;;;11.00;;
60306;SDS011;46155;52.364;6.580;2022-11-22T10:11:10;15.77;;;8.00;;
60306;SDS011;46155;52.364;6.580;2022-11-22T10:13:52;16.50;;;10.00;;
60306;SDS011;46155;52.364;6.580;2022-11-22T10:18:59;11.17;;;8.20;;
60306;SDS011;46155;52.364;6.580;2022-11-22T10:21:33;10.60;;;8.60;;
60306;SDS011;46155;52.364;6.580;2022-11-22T10:23:59;9.60;;;8.67;;
60306;SDS011;46155;52.364;6.580;2022-11-22T10:26:28;8.40;;;7.67;;
60306;SDS011;46155;52.364;6.580;2022-11-22T10:29:19;11.53;;;8.17;;
60306;SDS011;46155;52.364;6.580;2022-11-22T10:34:48;8.77;;;6.87;;
60306;SDS011;46155;52.364;6.580;2022-11-22T10:40:23;9.60;;;8.23;;
60306;SDS011;46155;52.364;6.580;2022-11-22T10:43:05;10.33;;;8.30;;
60306;SDS011;46155;52.364;6.580;2022-11-22T10:45:44;8.10;;;7.47;;
60306;SDS011;46155;52.364;6.580;2022-11-22T10:55:49;8.20;;;7.73;;
60306;SDS011;46155;52.364;6.580;2022-11-22T11:02:02;7.70;;;6.97;;
60306;SDS011;46155;52.364;6.580;2022-11-22T11:04:54;8.53;;;7.70;;
60306;SDS011;46155;52.364;6.580;2022-11-22T11:07:23;14.13;;;7.00;;
60306;SDS011;46155;52.364;6.580;2022-11-22T11:09:51;7.03;;;6.27;;
60306;SDS011;46155;52.364;6.580;2022-11-22T11:12:22;8.13;;;6.93;;
60306;SDS011;46155;52.364;6.580;2022-11-22T11:14:53;10.93;;;6.23;;
60306;SDS011;46155;52.364;6.580;2022-11-22T11:17:25;7.80;;;6.93;;
60306;SDS011;46155;52.364;6.580;2022-11-22T11:19:53;8.13;;;7.30;;
60306;SDS011;46155;52.364;6.580;2022-11-22T11:22:21;11.23;;;5.83;;
60306;SDS011;46155;52.364;6.580;2022-11-22T11:24:49;9.43;;;7.10;;
60306;SDS011;46155;52.364;6.580;2022-11-22T11:27:15;8.43;;;6.37;;
60306;SDS011;46155;52.364;6.580;2022-11-22T11:29:53;6.67;;;6.03;;
60306;SDS011;46155;52.364;6.580;2022-11-22T11:32:25;14.27;;;6.33;;
60306;SDS011;46155;52.364;6.580;2022-11-22T11:34:52;9.43;;;6.00;;
60306;SDS011;46155;52.364;6.580;2022-11-22T11:37:24;6.50;;;6.00;;
60306;SDS011;46155;52.364;6.580;2022-11-22T11:39:55;15.87;;;7.27;;
60306;SDS011;46155;52.364;6.580;2022-11-22T11:42:31;8.60;;;6.63;;
60306;SDS011;46155;52.364;6.580;2022-11-22T11:47:43;6.83;;;6.07;;
60306;SDS011;46155;52.364;6.580;2022-11-22T11:50:16;12.07;;;6.70;;
60306;SDS011;46155;52.364;6.580;2022-11-22T11:52:49;7.00;;;6.40;;
60306;SDS011;46155;52.364;6.580;2022-11-22T11:55:17;9.27;;;6.17;;
60306;SDS011;46155;52.364;6.580;2022-11-22T11:57:43;9.73;;;6.30;;
60306;SDS011;46155;52.364;6.580;2022-11-22T12:00:17;12.40;;;6.20;;
60306;SDS011;46155;52.364;6.580;2022-11-22T12:02:54;6.80;;;6.10;;
60306;SDS011;46155;52.364;6.580;2022-11-22T12:05:27;7.00;;;6.40;;
60306;SDS011;46155;52.364;6.580;2022-11-22T12:07:54;7.00;;;6.57;;
60306;SDS011;46155;52.364;6.580;2022-11-22T12:22:02;15.13;;;6.50;;
60306;SDS011;46155;52.364;6.580;2022-11-22T12:27:14;6.30;;;5.97;;
60306;SDS011;46155;52.364;6.580;2022-11-22T12:29:40;5.73;;;5.43;;
60306;SDS011;46155;52.364;6.580;2022-11-22T12:32:11;7.50;;;5.07;;
60306;SDS011;46155;52.364;6.580;2022-11-22T12:35:17;5.53;;;5.03;;
60306;SDS011;46155;52.364;6.580;2022-11-22T12:40:38;7.17;;;5.10;;
60306;SDS011;46155;52.364;6.580;2022-11-22T12:43:12;5.90;;;5.50;;
60306;SDS011;46155;52.364;6.580;2022-11-22T12:45:47;5.47;;;5.17;;
60306;SDS011;46155;52.364;6.580;2022-11-22T12:51:00;5.17;;;4.87;;
60306;SDS011;46155;52.364;6.580;2022-11-22T12:53:32;5.83;;;5.33;;
60306;SDS011;46155;52.364;6.580;2022-11-22T12:56:06;5.67;;;5.37;;
60306;SDS011;46155;52.364;6.580;2022-11-22T12:58:51;5.27;;;4.90;;
60306;SDS011;46155;52.364;6.580;2022-11-22T13:06:33;5.93;;;5.50;;
60306;SDS011;46155;52.364;6.580;2022-11-22T13:09:23;5.97;;;5.57;;
60306;SDS011;46155;52.364;6.580;2022-11-22T13:11:56;6.37;;;6.03;;
60306;SDS011;46155;52.364;6.580;2022-11-22T13:14:32;6.93;;;6.27;;
60306;SDS011;46155;52.364;6.580;2022-11-22T13:17:06;14.13;;;7.03;;
60306;SDS011;46155;52.364;6.580;2022-11-22T13:19:32;8.17;;;5.70;;
60306;SDS011;46155;52.364;6.580;2022-11-22T13:28:01;5.77;;;5.37;;
60306;SDS011;46155;52.364;6.580;2022-11-22T13:30:33;6.90;;;5.70;;
60306;SDS011;46155;52.364;6.580;2022-11-22T13:33:03;5.47;;;4.97;;
60306;SDS011;46155;52.364;6.580;2022-11-22T13:37:57;9.43;;;6.93;;
60306;SDS011;46155;52.364;6.580;2022-11-22T13:40:26;5.27;;;4.93;;
60306;SDS011;46155;52.364;6.580;2022-11-22T13:45:52;6.57;;;5.77;;
60306;SDS011;46155;52.364;6.580;2022-11-22T13:51:06;5.10;;;4.80;;
60306;SDS011;46155;52.364;6.580;2022-11-22T13:53:34;6.27;;;5.60;;
60306;SDS011;46155;52.364;6.580;2022-11-22T14:01:07;7.83;;;5.53;;
60306;SDS011;46155;52.364;6.580;2022-11-22T14:12:10;8.40;;;6.13;;
60306;SDS011;46155;52.364;6.580;2022-11-22T14:15:13;6.27;;;5.77;;
60306;SDS011;46155;52.364;6.580;2022-11-22T14:23:19;9.50;;;6.07;;
60306;SDS011;46155;52.364;6.580;2022-11-22T14:31:30;6.97;;;6.43;;
60306;SDS011;46155;52.364;6.580;2022-11-22T14:34:18;7.10;;;6.27;;
60306;SDS011;46155;52.364;6.580;2022-11-22T14:47:32;7.90;;;7.20;;
60306;SDS011;46155;52.364;6.580;2022-11-22T14:49:58;9.97;;;8.93;;
60306;SDS011;46155;52.364;6.580;2022-11-22T14:52:26;12.63;;;8.17;;
60306;SDS011;46155;52.364;6.580;2022-11-22T14:54:58;9.43;;;8.73;;
60306;SDS011;46155;52.364;6.580;2022-11-22T14:57:26;10.87;;;9.80;;
60306;SDS011;46155;52.364;6.580;2022-11-22T15:14:45;15.47;;;8.63;;
60306;SDS011;46155;52.364;6.580;2022-11-22T15:16:56;9.53;;;7.73;;
60306;SDS011;46155;52.364;6.580;2022-11-22T15:19:30;10.37;;;7.80;;
60306;SDS011;46155;52.364;6.580;2022-11-22T15:22:04;9.47;;;8.77;;
60306;SDS011;46155;52.364;6.580;2022-11-22T15:24:31;9.13;;;8.33;;
60306;SDS011;46155;52.364;6.580;2022-11-22T15:26:57;8.43;;;7.73;;
60306;SDS011;46155;52.364;6.580;2022-11-22T15:29:22;8.57;;;7.83;;
60306;SDS011;46155;52.364;6.580;2022-11-22T15:31:48;7.90;;;7.40;;
60306;SDS011;46155;52.364;6.580;2022-11-22T15:34:17;8.10;;;7.43;;
60306;SDS011;46155;52.364;6.580;2022-11-22T15:36:52;7.57;;;7.07;;
60306;SDS011;46155;52.364;6.580;2022-11-22T15:39:29;8.70;;;8.13;;
60306;SDS011;46155;52.364;6.580;2022-11-22T15:42:02;8.83;;;8.10;;
60306;SDS011;46155;52.364;6.580;2022-11-22T15:44:39;9.83;;;8.83;;
60306;SDS011;46155;52.364;6.580;2022-11-22T15:47:05;9.33;;;8.40;;
60306;SDS011;46155;52.364;6.580;2022-11-22T15:49:39;10.07;;;9.17;;
60306;SDS011;46155;52.364;6.580;2022-11-22T15:52:17;8.27;;;7.50;;
60306;SDS011;46155;52.364;6.580;2022-11-22T15:54:52;7.43;;;6.90;;
60306;SDS011;46155;52.364;6.580;2022-11-22T15:59:48;10.10;;;9.10;;
60306;SDS011;46155;52.364;6.580;2022-11-22T16:02:14;8.23;;;7.50;;
60306;SDS011;46155;52.364;6.580;2022-11-22T16:04:50;7.80;;;7.30;;
60306;SDS011;46155;52.364;6.580;2022-11-22T16:07:22;7.87;;;7.37;;
60306;SDS011;46155;52.364;6.580;2022-11-22T16:09:52;10.10;;;7.27;;
60306;SDS011;46155;52.364;6.580;2022-11-22T16:12:26;8.10;;;7.13;;
60306;SDS011;46155;52.364;6.580;2022-11-22T16:14:53;7.47;;;6.77;;
60306;SDS011;46155;52.364;6.580;2022-11-22T16:17:30;7.27;;;6.43;;
60306;SDS011;46155;52.364;6.580;2022-11-22T16:23:11;8.50;;;7.97;;
60306;SDS011;46155;52.364;6.580;2022-11-22T16:25:44;7.13;;;6.50;;
60306;SDS011;46155;52.364;6.580;2022-11-22T16:30:52;8.00;;;7.50;;
60306;SDS011;46155;52.364;6.580;2022-11-22T16:33:19;12.03;;;7.63;;
60306;SDS011;46155;52.364;6.580;2022-11-22T16:35:45;10.27;;;7.40;;
60306;SDS011;46155;52.364;6.580;2022-11-22T16:38:10;8.80;;;8.23;;
60306;SDS011;46155;52.364;6.580;2022-11-22T16:40:40;8.20;;;7.60;;
60306;SDS011;46155;52.364;6.580;2022-11-22T16:43:16;8.30;;;7.80;;
60306;SDS011;46155;52.364;6.580;2022-11-22T16:45:44;7.70;;;7.20;;
60306;SDS011;46155;52.364;6.580;2022-11-22T16:48:13;8.47;;;7.87;;
60306;SDS011;46155;52.364;6.580;2022-11-22T16:50:39;9.87;;;8.87;;
60306;SDS011;46155;52.364;6.580;2022-11-22T16:53:07;7.63;;;6.93;;
60306;SDS011;46155;52.364;6.580;2022-11-22T16:55:38;8.70;;;8.10;;
60306;SDS011;46155;52.364;6.580;2022-11-22T16:58:14;7.93;;;7.40;;
60306;SDS011;46155;52.364;6.580;2022-11-22T17:00:42;7.97;;;7.37;;
60306;SDS011;46155;52.364;6.580;2022-11-22T17:03:10;9.07;;;8.23;;
60306;SDS011;46155;52.364;6.580;2022-11-22T17:05:38;7.20;;;6.80;;
60306;SDS011;46155;52.364;6.580;2022-11-22T17:08:14;8.00;;;7.50;;
60306;SDS011;46155;52.364;6.580;2022-11-22T17:10:46;8.23;;;7.73;;
60306;SDS011;46155;52.364;6.580;2022-11-22T17:13:23;7.30;;;6.70;;
60306;SDS011;46155;52.364;6.580;2022-11-22T17:15:51;9.10;;;7.93;;
60306;SDS011;46155;52.364;6.580;2022-11-22T17:18:18;8.20;;;7.60;;
60306;SDS011;46155;52.364;6.580;2022-11-22T17:20:43;9.40;;;8.90;;
60306;SDS011;46155;52.364;6.580;2022-11-22T17:23:10;8.47;;;7.93;;
60306;SDS011;46155;52.364;6.580;2022-11-22T17:25:39;7.53;;;7.03;;
60306;SDS011;46155;52.364;6.580;2022-11-22T17:28:04;8.70;;;7.83;;
60306;SDS011;46155;52.364;6.580;2022-11-22T17:30:29;8.43;;;7.93;;
60306;SDS011;46155;52.364;6.580;2022-11-22T17:32:55;8.90;;;8.40;;
60306;SDS011;46155;52.364;6.580;2022-11-22T17:35:20;8.60;;;8.10;;
60306;SDS011;46155;52.364;6.580;2022-11-22T17:37:45;9.00;;;8.50;;
60306;SDS011;46155;52.364;6.580;2022-11-22T17:40:11;9.63;;;9.03;;
60306;SDS011;46155;52.364;6.580;2022-11-22T17:42:37;9.73;;;9.20;;
60306;SDS011;46155;52.364;6.580;2022-11-22T17:45:03;9.40;;;8.90;;
60306;SDS011;46155;52.364;6.580;2022-11-22T17:47:28;9.20;;;8.40;;
60306;SDS011;46155;52.364;6.580;2022-11-22T17:49:53;9.43;;;8.83;;
60306;SDS011;46155;52.364;6.580;2022-11-22T17:52:19;10.60;;;9.60;;
60306;SDS011;46155;52.364;6.580;2022-11-22T17:54:44;28.50;;;12.97;;
60306;SDS011;46155;52.364;6.580;2022-11-22T17:57:09;11.77;;;10.50;;
60306;SDS011;46155;52.364;6.580;2022-11-22T17:59:34;11.17;;;10.17;;
60306;SDS011;46155;52.364;6.580;2022-11-22T18:02:00;9.87;;;9.13;;
60306;SDS011;46155;52.364;6.580;2022-11-22T18:04:25;9.67;;;8.87;;
60306;SDS011;46155;52.364;6.580;2022-11-22T18:06:51;9.67;;;9.07;;
60306;SDS011;46155;52.364;6.580;2022-11-22T18:09:16;9.20;;;8.60;;
60306;SDS011;46155;52.364;6.580;2022-11-22T18:11:41;8.80;;;8.20;;
60306;SDS011;46155;52.364;6.580;2022-11-22T18:14:08;9.67;;;9.10;;
60306;SDS011;46155;52.364;6.580;2022-11-22T18:16:34;9.40;;;9.00;;
60306;SDS011;46155;52.364;6.580;2022-11-22T18:19:00;9.00;;;8.40;;
60306;SDS011;46155;52.364;6.580;2022-11-22T18:21:25;8.90;;;8.50;;
60306;SDS011;46155;52.364;6.580;2022-11-22T18:23:53;10.20;;;9.50;;
60306;SDS011;46155;52.364;6.580;2022-11-22T18:26:18;9.73;;;9.13;;
60306;SDS011;46155;52.364;6.580;2022-11-22T18:28:44;9.63;;;8.83;;
60306;SDS011;46155;52.364;6.580;2022-11-22T18:31:09;9.93;;;9.43;;
60306;SDS011;46155;52.364;6.580;2022-11-22T18:33:34;10.97;;;10.27;;
60306;SDS011;46155;52.364;6.580;2022-11-22T18:36:03;11.40;;;10.50;;
60306;SDS011;46155;52.364;6.580;2022-11-22T18:38:30;10.90;;;10.30;;
60306;SDS011;46155;52.364;6.580;2022-11-22T18:40:59;12.10;;;11.10;;
60306;SDS011;46155;52.364;6.580;2022-11-22T18:43:25;14.33;;;13.33;;
60306;SDS011;46155;52.364;6.580;2022-11-22T18:45:50;13.77;;;13.07;;
60306;SDS011;46155;52.364;6.580;2022-11-22T18:48:16;17.27;;;16.27;;
60306;SDS011;46155;52.364;6.580;2022-11-22T18:50:41;18.37;;;16.93;;
60306;SDS011;46155;52.364;6.580;2022-11-22T18:53:06;18.30;;;17.20;;
60306;SDS011;46155;52.364;6.580;2022-11-22T18:55:32;20.83;;;19.53;;
60306;SDS011;46155;52.364;6.580;2022-11-22T18:57:57;20.43;;;18.93;;
60306;SDS011;46155;52.364;6.580;2022-11-22T19:00:23;20.53;;;19.23;;
60306;SDS011;46155;52.364;6.580;2022-11-22T19:02:49;20.47;;;19.27;;
60306;SDS011;46155;52.364;6.580;2022-11-22T19:05:14;21.50;;;20.20;;
60306;SDS011;46155;52.364;6.580;2022-11-22T19:07:40;23.30;;;21.90;;
60306;SDS011;46155;52.364;6.580;2022-11-22T19:10:06;25.47;;;23.77;;
60306;SDS011;46155;52.364;6.580;2022-11-22T19:12:32;24.97;;;22.33;;
60306;SDS011;46155;52.364;6.580;2022-11-22T19:14:58;25.93;;;24.23;;
60306;SDS011;46155;52.364;6.580;2022-11-22T19:17:23;24.87;;;23.17;;
60306;SDS011;46155;52.364;6.580;2022-11-22T19:19:49;24.57;;;22.97;;
60306;SDS011;46155;52.364;6.580;2022-11-22T19:22:20;26.90;;;25.10;;
60306;SDS011;46155;52.364;6.580;2022-11-22T19:24:46;26.17;;;24.30;;
60306;SDS011;46155;52.364;6.580;2022-11-22T19:27:12;28.10;;;26.40;;
60306;SDS011;46155;52.364;6.580;2022-11-22T19:29:37;27.87;;;26.23;;
60306;SDS011;46155;52.364;6.580;2022-11-22T19:32:03;26.87;;;25.17;;
60306;SDS011;46155;52.364;6.580;2022-11-22T19:34:28;26.20;;;24.50;;
60306;SDS011;46155;52.364;6.580;2022-11-22T19:36:53;29.10;;;26.93;;
60306;SDS011;46155;52.364;6.580;2022-11-22T19:39:19;27.60;;;25.47;;
60306;SDS011;46155;52.364;6.580;2022-11-22T19:41:44;27.73;;;25.77;;
60306;SDS011;46155;52.364;6.580;2022-11-22T19:44:10;29.47;;;27.27;;
60306;SDS011;46155;52.364;6.580;2022-11-22T19:46:35;30.87;;;28.73;;
60306;SDS011;46155;52.364;6.580;2022-11-22T19:49:02;30.00;;;28.07;;
60306;SDS011;46155;52.364;6.580;2022-11-22T19:51:29;29.70;;;27.70;;
60306;SDS011;46155;52.364;6.580;2022-11-22T19:53:55;31.63;;;29.47;;
60306;SDS011;46155;52.364;6.580;2022-11-22T19:56:32;29.60;;;27.40;;
60306;SDS011;46155;52.364;6.580;2022-11-22T19:58:59;29.23;;;27.23;;
60306;SDS011;46155;52.364;6.580;2022-11-22T20:01:27;29.53;;;27.40;;
60306;SDS011;46155;52.364;6.580;2022-11-22T20:03:54;29.57;;;27.63;;
60306;SDS011;46155;52.364;6.580;2022-11-22T20:06:21;30.13;;;27.63;;
60306;SDS011;46155;52.364;6.580;2022-11-22T20:08:47;30.27;;;28.10;;
60306;SDS011;46155;52.364;6.580;2022-11-22T20:11:13;32.27;;;29.87;;
60306;SDS011;46155;52.364;6.580;2022-11-22T20:13:41;29.37;;;27.23;;
60306;SDS011;46155;52.364;6.580;2022-11-22T20:16:18;27.70;;;25.90;;
60306;SDS011;46155;52.364;6.580;2022-11-22T20:18:46;29.00;;;26.60;;
60306;SDS011;46155;52.364;6.580;2022-11-22T20:21:12;29.10;;;27.00;;
60306;SDS011;46155;52.364;6.580;2022-11-22T20:23:37;30.97;;;28.53;;
60306;SDS011;46155;52.364;6.580;2022-11-22T20:26:04;28.77;;;26.77;;
60306;SDS011;46155;52.364;6.580;2022-11-22T20:28:31;28.63;;;26.67;;
60306;SDS011;46155;52.364;6.580;2022-11-22T20:31:10;30.50;;;28.30;;
60306;SDS011;46155;52.364;6.580;2022-11-22T20:33:41;28.30;;;26.40;;
60306;SDS011;46155;52.364;6.580;2022-11-22T20:36:12;29.17;;;26.87;;
60306;SDS011;46155;52.364;6.580;2022-11-22T20:38:39;29.97;;;27.70;;
60306;SDS011;46155;52.364;6.580;2022-11-22T20:41:06;27.63;;;25.67;;
60306;SDS011;46155;52.364;6.580;2022-11-22T20:43:33;29.60;;;27.60;;
60306;SDS011;46155;52.364;6.580;2022-11-22T20:48:33;29.37;;;27.40;;
60306;SDS011;46155;52.364;6.580;2022-11-22T20:51:00;31.57;;;29.33;;
60306;SDS011;46155;52.364;6.580;2022-11-22T20:53:28;32.43;;;30.13;;